sensor_id;sensor_type;location;lat;lon;timestamp;pressure;altitude;pressure_sealevel;temperature;humidity
35908;BME280;22003;50.320;8.054;2024-03-25T00:01:59;98799.47;;;5.61;81.80
35908;BME280;22003;50.320;8.054;2024-03-25T00:04:25;98807.28;;;5.62;81.60
35908;BME280;22003;50.320;8.054;2024-03-25T00:06:50;98805.81;;;5.58;82.03
35908;BME280;22003;50.320;8.054;2024-03-25T00:09:16;98807.16;;;5.64;81.25
35908;BME280;22003;50.320;8.054;2024-03-25T00:11:42;98810.63;;;5.64;81.21
35908;BME280;22003;50.320;8.054;2024-03-25T00:14:08;98813.53;;;5.72;81.81
35908;BME280;22003;50.320;8.054;2024-03-25T00:16:34;98816.38;;;5.69;81.14
35908;BME280;22003;50.320;8.054;2024-03-25T00:18:59;98817.53;;;5.78;80.96
35908;BME280;22003;50.320;8.054;2024-03-25T00:21:25;98810.34;;;5.80;81.00
35908;BME280;22003;50.320;8.054;2024-03-25T00:23:50;98815.09;;;5.75;80.87
35908;BME280;22003;50.320;8.054;2024-03-25T00:26:15;98815.94;;;5.75;80.51
35908;BME280;22003;50.320;8.054;2024-03-25T00:28:40;98812.13;;;5.79;80.75
35908;BME280;22003;50.320;8.054;2024-03-25T00:31:06;98814.59;;;5.70;81.54
35908;BME280;22003;50.320;8.054;2024-03-25T00:33:31;98782.75;;;5.50;81.31
35908;BME280;22003;50.320;8.054;2024-03-25T00:35:57;98810.91;;;5.72;81.39
35908;BME280;22003;50.320;8.054;2024-03-25T00:38:23;98816.84;;;5.63;81.78
35908;BME280;22003;50.320;8.054;2024-03-25T00:40:48;98815.03;;;5.64;81.53
35908;BME280;22003;50.320;8.054;2024-03-25T00:43:15;98806.53;;;5.60;81.26
35908;BME280;22003;50.320;8.054;2024-03-25T00:45:40;98803.19;;;5.58;81.63
35908;BME280;22003;50.320;8.054;2024-03-25T00:48:07;98809.72;;;5.76;80.96
35908;BME280;22003;50.320;8.054;2024-03-25T00:50:32;98820.63;;;5.59;81.17
35908;BME280;22003;50.320;8.054;2024-03-25T00:52:58;98806.03;;;5.55;81.04
35908;BME280;22003;50.320;8.054;2024-03-25T00:55:23;98806.25;;;5.52;80.75
35908;BME280;22003;50.320;8.054;2024-03-25T00:57:50;98815.31;;;5.48;81.58
35908;BME280;22003;50.320;8.054;2024-03-25T01:00:15;98803.25;;;5.45;81.34
35908;BME280;22003;50.320;8.054;2024-03-25T01:02:41;98811.22;;;5.44;81.05
35908;BME280;22003;50.320;8.054;2024-03-25T01:05:07;98760.59;;;5.05;81.36
35908;BME280;22003;50.320;8.054;2024-03-25T01:07:32;98807.03;;;5.41;81.13
35908;BME280;22003;50.320;8.054;2024-03-25T01:09:57;98806.91;;;5.43;80.98
35908;BME280;22003;50.320;8.054;2024-03-25T01:12:24;98798.97;;;5.32;81.07
35908;BME280;22003;50.320;8.054;2024-03-25T01:14:49;98804.66;;;5.25;81.58
35908;BME280;22003;50.320;8.054;2024-03-25T01:17:14;98809.59;;;5.54;80.60
35908;BME280;22003;50.320;8.054;2024-03-25T01:19:39;98814.72;;;5.44;80.55
35908;BME280;22003;50.320;8.054;2024-03-25T01:22:05;98814.91;;;5.41;80.55
35908;BME280;22003;50.320;8.054;2024-03-25T01:24:30;98814.72;;;5.32;80.96
35908;BME280;22003;50.320;8.054;2024-03-25T01:26:55;98814.97;;;5.28;80.35
35908;BME280;22003;50.320;8.054;2024-03-25T01:29:21;98817.66;;;5.27;80.82
35908;BME280;22003;50.320;8.054;2024-03-25T01:31:47;98816.06;;;5.37;80.93
35908;BME280;22003;50.320;8.054;2024-03-25T01:34:12;98821.25;;;5.26;81.50
35908;BME280;22003;50.320;8.054;2024-03-25T01:36:37;98820.84;;;5.19;81.99
35908;BME280;22003;50.320;8.054;2024-03-25T01:39:04;98819.63;;;5.12;82.50
35908;BME280;22003;50.320;8.054;2024-03-25T01:41:30;98823.41;;;4.95;83.31
35908;BME280;22003;50.320;8.054;2024-03-25T01:43:56;98752.81;;;4.67;83.61
35908;BME280;22003;50.320;8.054;2024-03-25T01:46:21;98817.84;;;5.00;84.09
35908;BME280;22003;50.320;8.054;2024-03-25T01:48:47;98811.84;;;4.98;83.81
35908;BME280;22003;50.320;8.054;2024-03-25T01:51:15;98818.53;;;5.15;83.88
35908;BME280;22003;50.320;8.054;2024-03-25T01:53:42;98811.66;;;5.01;83.56
35908;BME280;22003;50.320;8.054;2024-03-25T01:56:07;98824.03;;;4.99;83.52
35908;BME280;22003;50.320;8.054;2024-03-25T01:58:34;98822.22;;;4.99;83.37
35908;BME280;22003;50.320;8.054;2024-03-25T02:00:59;98817.50;;;5.04;83.19
35908;BME280;22003;50.320;8.054;2024-03-25T02:03:26;98771.06;;;4.68;83.17
35908;BME280;22003;50.320;8.054;2024-03-25T02:05:59;98827.25;;;5.15;83.09
35908;BME280;22003;50.320;8.054;2024-03-25T02:08:26;98818.78;;;5.12;82.98
35908;BME280;22003;50.320;8.054;2024-03-25T02:10:53;98820.44;;;5.13;82.62
35908;BME280;22003;50.320;8.054;2024-03-25T02:13:19;98824.88;;;5.12;82.59
35908;BME280;22003;50.320;8.054;2024-03-25T02:15:45;98824.44;;;5.18;82.90
35908;BME280;22003;50.320;8.054;2024-03-25T02:18:10;98828.00;;;5.17;82.51
35908;BME280;22003;50.320;8.054;2024-03-25T02:20:35;98757.72;;;4.71;82.63
35908;BME280;22003;50.320;8.054;2024-03-25T02:23:01;98794.03;;;4.90;82.50
35908;BME280;22003;50.320;8.054;2024-03-25T02:25:27;98830.19;;;5.23;82.23
35908;BME280;22003;50.320;8.054;2024-03-25T02:27:53;98837.34;;;5.09;82.74
35908;BME280;22003;50.320;8.054;2024-03-25T02:30:18;98830.00;;;5.14;83.26
35908;BME280;22003;50.320;8.054;2024-03-25T02:32:43;98827.19;;;4.91;83.93
35908;BME280;22003;50.320;8.054;2024-03-25T02:35:10;98841.28;;;4.90;85.20
35908;BME280;22003;50.320;8.054;2024-03-25T02:37:38;98782.50;;;4.55;86.03
35908;BME280;22003;50.320;8.054;2024-03-25T02:40:04;98841.69;;;4.97;86.67
35908;BME280;22003;50.320;8.054;2024-03-25T02:42:34;98845.28;;;4.83;87.01
35908;BME280;22003;50.320;8.054;2024-03-25T02:45:00;98843.78;;;4.66;87.68
35908;BME280;22003;50.320;8.054;2024-03-25T02:47:26;98850.28;;;4.86;88.08
35908;BME280;22003;50.320;8.054;2024-03-25T02:49:51;98809.56;;;4.55;88.58
35908;BME280;22003;50.320;8.054;2024-03-25T02:52:18;98848.91;;;4.55;89.73
35908;BME280;22003;50.320;8.054;2024-03-25T02:54:43;98851.34;;;4.45;90.14
35908;BME280;22003;50.320;8.054;2024-03-25T02:57:09;98844.41;;;4.44;91.36
35908;BME280;22003;50.320;8.054;2024-03-25T02:59:34;98854.38;;;4.52;91.66
35908;BME280;22003;50.320;8.054;2024-03-25T03:01:59;98837.16;;;4.35;91.92
35908;BME280;22003;50.320;8.054;2024-03-25T03:04:24;98841.25;;;4.39;91.92
35908;BME280;22003;50.320;8.054;2024-03-25T03:06:50;98839.13;;;4.32;92.37
35908;BME280;22003;50.320;8.054;2024-03-25T03:09:15;98845.44;;;4.42;92.58
35908;BME280;22003;50.320;8.054;2024-03-25T03:11:41;98774.47;;;4.05;91.66
35908;BME280;22003;50.320;8.054;2024-03-25T03:14:06;98851.75;;;4.52;92.00
35908;BME280;22003;50.320;8.054;2024-03-25T03:16:32;98850.56;;;4.43;92.21
35908;BME280;22003;50.320;8.054;2024-03-25T03:18:57;98813.59;;;4.08;92.67
35908;BME280;22003;50.320;8.054;2024-03-25T03:21:22;98858.06;;;4.62;92.71
35908;BME280;22003;50.320;8.054;2024-03-25T03:23:47;98847.41;;;4.26;92.16
35908;BME280;22003;50.320;8.054;2024-03-25T03:26:13;98845.66;;;4.39;92.37
35908;BME280;22003;50.320;8.054;2024-03-25T03:28:39;98853.66;;;4.50;92.08
35908;BME280;22003;50.320;8.054;2024-03-25T03:31:05;98848.59;;;4.47;91.63
35908;BME280;22003;50.320;8.054;2024-03-25T03:33:31;98783.41;;;4.03;91.44
35908;BME280;22003;50.320;8.054;2024-03-25T03:35:56;98836.91;;;4.26;92.18
35908;BME280;22003;50.320;8.054;2024-03-25T03:38:21;98834.53;;;4.35;91.61
35908;BME280;22003;50.320;8.054;2024-03-25T03:41:00;98837.25;;;4.34;91.33
35908;BME280;22003;50.320;8.054;2024-03-25T03:43:26;98783.53;;;4.14;90.86
35908;BME280;22003;50.320;8.054;2024-03-25T03:45:51;98829.81;;;4.40;91.22
35908;BME280;22003;50.320;8.054;2024-03-25T03:48:17;98833.16;;;4.55;91.06
35908;BME280;22003;50.320;8.054;2024-03-25T03:50:43;98832.25;;;4.56;90.60
35908;BME280;22003;50.320;8.054;2024-03-25T03:53:09;98824.78;;;4.63;89.04
35908;BME280;22003;50.320;8.054;2024-03-25T03:55:34;98830.34;;;4.58;88.36
35908;BME280;22003;50.320;8.054;2024-03-25T03:58:00;98833.94;;;4.57;88.51
35908;BME280;22003;50.320;8.054;2024-03-25T04:00:25;98830.25;;;4.47;88.43
35908;BME280;22003;50.320;8.054;2024-03-25T04:02:50;98851.53;;;4.42;88.74
35908;BME280;22003;50.320;8.054;2024-03-25T04:05:16;98830.78;;;4.52;88.74
35908;BME280;22003;50.320;8.054;2024-03-25T04:07:41;98830.13;;;4.48;88.25
35908;BME280;22003;50.320;8.054;2024-03-25T04:10:07;98785.84;;;4.18;88.58
35908;BME280;22003;50.320;8.054;2024-03-25T04:12:33;98836.00;;;4.39;88.45
35908;BME280;22003;50.320;8.054;2024-03-25T04:14:58;98835.84;;;4.15;87.66
35908;BME280;22003;50.320;8.054;2024-03-25T04:17:23;98836.59;;;4.17;88.84
35908;BME280;22003;50.320;8.054;2024-03-25T04:19:50;98837.31;;;4.07;87.85
35908;BME280;22003;50.320;8.054;2024-03-25T04:22:15;98837.38;;;4.05;88.48
35908;BME280;22003;50.320;8.054;2024-03-25T04:24:45;98837.19;;;4.08;87.93
35908;BME280;22003;50.320;8.054;2024-03-25T04:27:10;98828.78;;;3.90;88.55
35908;BME280;22003;50.320;8.054;2024-03-25T04:29:35;98825.16;;;3.79;88.57
35908;BME280;22003;50.320;8.054;2024-03-25T04:32:01;98802.13;;;3.84;88.50
35908;BME280;22003;50.320;8.054;2024-03-25T04:34:27;98823.28;;;3.81;88.74
35908;BME280;22003;50.320;8.054;2024-03-25T04:36:52;98842.16;;;3.59;89.06
35908;BME280;22003;50.320;8.054;2024-03-25T04:39:18;98839.97;;;3.65;89.56
35908;BME280;22003;50.320;8.054;2024-03-25T04:41:44;98832.50;;;3.59;89.79
35908;BME280;22003;50.320;8.054;2024-03-25T04:44:09;98839.66;;;3.57;89.74
35908;BME280;22003;50.320;8.054;2024-03-25T04:46:34;98838.88;;;3.55;90.19
35908;BME280;22003;50.320;8.054;2024-03-25T04:49:00;98848.06;;;3.48;90.33
35908;BME280;22003;50.320;8.054;2024-03-25T04:51:25;98839.50;;;3.46;90.46
35908;BME280;22003;50.320;8.054;2024-03-25T04:53:52;98844.63;;;3.48;90.56
35908;BME280;22003;50.320;8.054;2024-03-25T04:56:18;98841.72;;;3.38;90.63
35908;BME280;22003;50.320;8.054;2024-03-25T04:58:43;98845.50;;;3.34;90.94
35908;BME280;22003;50.320;8.054;2024-03-25T05:01:08;98849.25;;;3.30;91.10
35908;BME280;22003;50.320;8.054;2024-03-25T05:03:34;98859.34;;;3.22;91.25
35908;BME280;22003;50.320;8.054;2024-03-25T05:05:59;98856.72;;;2.93;91.88
35908;BME280;22003;50.320;8.054;2024-03-25T05:08:24;98856.63;;;3.09;92.30
35908;BME280;22003;50.320;8.054;2024-03-25T05:10:50;98859.34;;;3.07;92.59
35908;BME280;22003;50.320;8.054;2024-03-25T05:13:15;98862.53;;;2.84;92.58
35908;BME280;22003;50.320;8.054;2024-03-25T05:15:40;98862.91;;;2.92;93.07
35908;BME280;22003;50.320;8.054;2024-03-25T05:18:06;98866.44;;;2.77;93.09
35908;BME280;22003;50.320;8.054;2024-03-25T05:20:31;98862.16;;;2.76;93.18
35908;BME280;22003;50.320;8.054;2024-03-25T05:22:56;98869.81;;;2.79;94.02
35908;BME280;22003;50.320;8.054;2024-03-25T05:25:22;98860.84;;;2.83;94.24
35908;BME280;22003;50.320;8.054;2024-03-25T05:27:53;98861.94;;;2.64;94.17
35908;BME280;22003;50.320;8.054;2024-03-25T05:30:19;98865.78;;;2.87;94.60
35908;BME280;22003;50.320;8.054;2024-03-25T05:32:44;98864.22;;;2.85;94.11
35908;BME280;22003;50.320;8.054;2024-03-25T05:35:09;98870.84;;;2.76;94.16
35908;BME280;22003;50.320;8.054;2024-03-25T05:37:35;98821.19;;;2.32;94.51
35908;BME280;22003;50.320;8.054;2024-03-25T05:40:01;98780.56;;;2.12;95.23
35908;BME280;22003;50.320;8.054;2024-03-25T05:42:26;98873.84;;;2.84;95.23
35908;BME280;22003;50.320;8.054;2024-03-25T05:44:52;98871.47;;;2.65;94.92
35908;BME280;22003;50.320;8.054;2024-03-25T05:47:17;98876.53;;;2.83;94.96
35908;BME280;22003;50.320;8.054;2024-03-25T05:49:42;98826.44;;;2.46;94.72
35908;BME280;22003;50.320;8.054;2024-03-25T05:52:08;98866.19;;;2.96;94.87
35908;BME280;22003;50.320;8.054;2024-03-25T05:54:33;98871.13;;;2.86;94.38
35908;BME280;22003;50.320;8.054;2024-03-25T05:56:58;98871.13;;;2.86;94.71
35908;BME280;22003;50.320;8.054;2024-03-25T05:59:23;98869.28;;;3.16;93.55
35908;BME280;22003;50.320;8.054;2024-03-25T06:01:49;98867.66;;;3.14;93.13
35908;BME280;22003;50.320;8.054;2024-03-25T06:04:14;98866.63;;;3.31;92.70
35908;BME280;22003;50.320;8.054;2024-03-25T06:06:39;98823.28;;;3.12;92.39
35908;BME280;22003;50.320;8.054;2024-03-25T06:09:04;98873.13;;;3.66;91.96
35908;BME280;22003;50.320;8.054;2024-03-25T06:11:30;98869.34;;;3.70;91.36
35908;BME280;22003;50.320;8.054;2024-03-25T06:13:56;98864.22;;;3.69;90.98
35908;BME280;22003;50.320;8.054;2024-03-25T06:16:21;98821.75;;;3.64;90.65
35908;BME280;22003;50.320;8.054;2024-03-25T06:18:46;98876.22;;;4.13;89.77
35908;BME280;22003;50.320;8.054;2024-03-25T06:21:12;98865.66;;;4.27;88.80
35908;BME280;22003;50.320;8.054;2024-03-25T06:23:38;98858.53;;;4.29;87.88
35908;BME280;22003;50.320;8.054;2024-03-25T06:26:03;98862.31;;;4.38;87.71
35908;BME280;22003;50.320;8.054;2024-03-25T06:28:28;98867.25;;;4.30;87.46
35908;BME280;22003;50.320;8.054;2024-03-25T06:30:54;98864.94;;;4.38;87.54
35908;BME280;22003;50.320;8.054;2024-03-25T06:33:38;98868.13;;;4.56;86.53
35908;BME280;22003;50.320;8.054;2024-03-25T06:36:22;98818.69;;;4.24;86.79
35908;BME280;22003;50.320;8.054;2024-03-25T06:38:47;98877.38;;;4.61;86.71
35908;BME280;22003;50.320;8.054;2024-03-25T06:41:12;98880.53;;;4.92;85.81
35908;BME280;22003;50.320;8.054;2024-03-25T06:43:38;98870.16;;;4.78;84.97
35908;BME280;22003;50.320;8.054;2024-03-25T06:46:04;98854.91;;;4.70;85.14
35908;BME280;22003;50.320;8.054;2024-03-25T06:48:30;98826.25;;;4.54;84.94
35908;BME280;22003;50.320;8.054;2024-03-25T06:50:56;98875.38;;;4.90;84.90
35908;BME280;22003;50.320;8.054;2024-03-25T06:53:22;98862.88;;;5.07;84.19
35908;BME280;22003;50.320;8.054;2024-03-25T06:55:55;98821.13;;;4.78;84.05
35908;BME280;22003;50.320;8.054;2024-03-25T06:58:22;98878.94;;;5.27;83.60
35908;BME280;22003;50.320;8.054;2024-03-25T07:00:47;98786.50;;;4.47;82.94
35908;BME280;22003;50.320;8.054;2024-03-25T07:03:14;98824.50;;;4.67;83.52
35908;BME280;22003;50.320;8.054;2024-03-25T07:05:40;98889.75;;;5.23;83.25
35908;BME280;22003;50.320;8.054;2024-03-25T07:08:05;98892.75;;;5.42;82.26
35908;BME280;22003;50.320;8.054;2024-03-25T07:10:31;98897.44;;;5.63;81.69
35908;BME280;22003;50.320;8.054;2024-03-25T07:12:56;98839.63;;;5.26;81.54
35908;BME280;22003;50.320;8.054;2024-03-25T07:15:21;98899.16;;;5.51;81.18
35908;BME280;22003;50.320;8.054;2024-03-25T07:17:46;98898.41;;;5.62;81.27
35908;BME280;22003;50.320;8.054;2024-03-25T07:20:12;98901.44;;;5.68;80.28
35908;BME280;22003;50.320;8.054;2024-03-25T07:22:37;98896.13;;;5.81;80.28
35908;BME280;22003;50.320;8.054;2024-03-25T07:25:03;98894.72;;;5.88;80.26
35908;BME280;22003;50.320;8.054;2024-03-25T07:27:29;98894.53;;;6.15;80.22
35908;BME280;22003;50.320;8.054;2024-03-25T07:29:54;98897.97;;;6.28;80.02
35908;BME280;22003;50.320;8.054;2024-03-25T07:32:19;98893.41;;;6.30;78.46
35908;BME280;22003;50.320;8.054;2024-03-25T07:34:45;98899.25;;;6.23;78.53
35908;BME280;22003;50.320;8.054;2024-03-25T07:37:11;98904.69;;;6.44;77.79
35908;BME280;22003;50.320;8.054;2024-03-25T07:39:36;98853.53;;;6.13;77.22
35908;BME280;22003;50.320;8.054;2024-03-25T07:42:01;98909.03;;;6.45;76.56
35908;BME280;22003;50.320;8.054;2024-03-25T07:44:27;98906.88;;;6.39;77.18
35908;BME280;22003;50.320;8.054;2024-03-25T07:46:52;98906.69;;;6.64;76.52
35908;BME280;22003;50.320;8.054;2024-03-25T07:49:17;98899.59;;;6.53;76.85
35908;BME280;22003;50.320;8.054;2024-03-25T07:51:42;98906.94;;;6.61;76.62
35908;BME280;22003;50.320;8.054;2024-03-25T07:54:08;98911.78;;;6.78;77.16
35908;BME280;22003;50.320;8.054;2024-03-25T07:56:35;98863.25;;;6.58;76.04
35908;BME280;22003;50.320;8.054;2024-03-25T07:59:02;98893.94;;;6.82;75.39
35908;BME280;22003;50.320;8.054;2024-03-25T08:01:29;98884.22;;;6.82;74.48
35908;BME280;22003;50.320;8.054;2024-03-25T08:03:54;98900.31;;;7.02;73.05
35908;BME280;22003;50.320;8.054;2024-03-25T08:06:19;98903.94;;;7.12;73.36
35908;BME280;22003;50.320;8.054;2024-03-25T08:08:46;98880.22;;;7.01;75.13
35908;BME280;22003;50.320;8.054;2024-03-25T08:11:12;98896.88;;;7.24;75.73
35908;BME280;22003;50.320;8.054;2024-03-25T08:13:37;98901.66;;;7.41;74.43
35908;BME280;22003;50.320;8.054;2024-03-25T08:16:02;98885.72;;;7.43;74.63
35908;BME280;22003;50.320;8.054;2024-03-25T08:18:28;98893.50;;;7.66;75.12
35908;BME280;22003;50.320;8.054;2024-03-25T08:20:54;98823.78;;;7.37;71.73
35908;BME280;22003;50.320;8.054;2024-03-25T08:23:19;98892.38;;;7.80;72.50
35908;BME280;22003;50.320;8.054;2024-03-25T08:25:44;98888.63;;;8.37;70.38
35908;BME280;22003;50.320;8.054;2024-03-25T08:28:09;98892.78;;;8.08;68.02
35908;BME280;22003;50.320;8.054;2024-03-25T08:30:35;98896.66;;;7.92;67.73
35908;BME280;22003;50.320;8.054;2024-03-25T08:33:01;98896.31;;;7.86;68.20
35908;BME280;22003;50.320;8.054;2024-03-25T08:35:27;98900.56;;;7.44;68.94
35908;BME280;22003;50.320;8.054;2024-03-25T08:37:52;98904.00;;;7.89;70.43
35908;BME280;22003;50.320;8.054;2024-03-25T08:40:17;98899.50;;;8.12;68.16
35908;BME280;22003;50.320;8.054;2024-03-25T08:42:42;98897.03;;;8.63;68.76
35908;BME280;22003;50.320;8.054;2024-03-25T08:45:08;98890.28;;;8.50;66.97
35908;BME280;22003;50.320;8.054;2024-03-25T08:47:34;98884.47;;;8.77;66.76
35908;BME280;22003;50.320;8.054;2024-03-25T08:49:59;98889.91;;;8.43;65.62
35908;BME280;22003;50.320;8.054;2024-03-25T08:52:24;98891.97;;;8.07;63.98
35908;BME280;22003;50.320;8.054;2024-03-25T08:54:49;98898.06;;;8.08;65.11
35908;BME280;22003;50.320;8.054;2024-03-25T08:57:15;98901.19;;;8.13;64.74
35908;BME280;22003;50.320;8.054;2024-03-25T08:59:40;98887.19;;;8.44;64.79
35908;BME280;22003;50.320;8.054;2024-03-25T09:02:06;98831.16;;;8.09;65.50
35908;BME280;22003;50.320;8.054;2024-03-25T09:04:31;98889.56;;;8.04;65.86
35908;BME280;22003;50.320;8.054;2024-03-25T09:06:57;98897.78;;;8.54;66.25
35908;BME280;22003;50.320;8.054;2024-03-25T09:09:22;98901.16;;;8.56;66.28
35908;BME280;22003;50.320;8.054;2024-03-25T09:12:06;98889.13;;;8.63;67.98
35908;BME280;22003;50.320;8.054;2024-03-25T09:14:32;98897.19;;;9.13;69.98
35908;BME280;22003;50.320;8.054;2024-03-25T09:16:57;98900.88;;;9.22;65.19
35908;BME280;22003;50.320;8.054;2024-03-25T09:19:22;98895.91;;;9.69;65.59
35908;BME280;22003;50.320;8.054;2024-03-25T09:21:49;98881.34;;;10.03;63.16
35908;BME280;22003;50.320;8.054;2024-03-25T09:24:14;98880.59;;;9.82;62.70
35908;BME280;22003;50.320;8.054;2024-03-25T09:26:40;98838.19;;;9.43;61.57
35908;BME280;22003;50.320;8.054;2024-03-25T09:29:05;98867.13;;;9.85;61.13
35908;BME280;22003;50.320;8.054;2024-03-25T09:31:31;98871.94;;;9.61;62.82
35908;BME280;22003;50.320;8.054;2024-03-25T09:33:56;98884.41;;;9.39;61.42
35908;BME280;22003;50.320;8.054;2024-03-25T09:36:22;98859.09;;;9.46;61.02
35908;BME280;22003;50.320;8.054;2024-03-25T09:38:47;98863.13;;;10.00;60.38
35908;BME280;22003;50.320;8.054;2024-03-25T09:41:12;98855.25;;;9.70;57.83
35908;BME280;22003;50.320;8.054;2024-03-25T09:43:47;98853.50;;;9.90;59.22
35908;BME280;22003;50.320;8.054;2024-03-25T09:46:15;98853.91;;;10.14;59.40
35908;BME280;22003;50.320;8.054;2024-03-25T09:48:41;98850.88;;;9.99;58.15
35908;BME280;22003;50.320;8.054;2024-03-25T09:51:07;98793.84;;;9.57;58.22
35908;BME280;22003;50.320;8.054;2024-03-25T09:53:34;98844.13;;;9.76;59.34
35908;BME280;22003;50.320;8.054;2024-03-25T09:56:00;98848.34;;;10.08;57.21
35908;BME280;22003;50.320;8.054;2024-03-25T09:58:26;98848.06;;;9.91;56.96
35908;BME280;22003;50.320;8.054;2024-03-25T10:00:52;98844.25;;;9.65;58.63
35908;BME280;22003;50.320;8.054;2024-03-25T10:03:18;98839.13;;;9.92;60.83
35908;BME280;22003;50.320;8.054;2024-03-25T10:05:43;98831.09;;;10.42;57.53
35908;BME280;22003;50.320;8.054;2024-03-25T10:08:08;98829.56;;;10.49;56.27
35908;BME280;22003;50.320;8.054;2024-03-25T10:10:34;98823.97;;;10.43;55.92
35908;BME280;22003;50.320;8.054;2024-03-25T10:13:02;98816.34;;;10.49;55.40
35908;BME280;22003;50.320;8.054;2024-03-25T10:15:27;98802.53;;;10.26;54.57
35908;BME280;22003;50.320;8.054;2024-03-25T10:17:53;98811.66;;;10.71;54.28
35908;BME280;22003;50.320;8.054;2024-03-25T10:20:19;98802.59;;;10.83;53.93
35908;BME280;22003;50.320;8.054;2024-03-25T10:22:45;98804.19;;;11.31;53.07
35908;BME280;22003;50.320;8.054;2024-03-25T10:25:26;98799.59;;;11.60;52.68
35908;BME280;22003;50.320;8.054;2024-03-25T10:27:57;98800.41;;;11.61;52.16
35908;BME280;22003;50.320;8.054;2024-03-25T10:30:22;98805.03;;;12.22;53.22
35908;BME280;22003;50.320;8.054;2024-03-25T10:33:07;98796.00;;;11.97;53.19
35908;BME280;22003;50.320;8.054;2024-03-25T10:35:34;98799.44;;;11.62;54.04
35908;BME280;22003;50.320;8.054;2024-03-25T10:38:10;98786.38;;;11.23;52.52
35908;BME280;22003;50.320;8.054;2024-03-25T10:40:39;98793.78;;;11.20;51.94
35908;BME280;22003;50.320;8.054;2024-03-25T10:43:09;98769.16;;;10.72;52.23
35908;BME280;22003;50.320;8.054;2024-03-25T10:45:41;98790.25;;;11.29;50.27
35908;BME280;22003;50.320;8.054;2024-03-25T10:48:09;98798.69;;;11.42;50.88
35908;BME280;22003;50.320;8.054;2024-03-25T10:50:39;98789.88;;;11.24;50.81
35908;BME280;22003;50.320;8.054;2024-03-25T10:53:07;98743.41;;;10.92;49.89
35908;BME280;22003;50.320;8.054;2024-03-25T10:55:34;98786.22;;;11.25;51.68
35908;BME280;22003;50.320;8.054;2024-03-25T10:58:01;98724.31;;;10.51;50.03
35908;BME280;22003;50.320;8.054;2024-03-25T11:00:28;98776.63;;;10.49;50.60
35908;BME280;22003;50.320;8.054;2024-03-25T11:02:53;98775.81;;;10.76;51.58
35908;BME280;22003;50.320;8.054;2024-03-25T11:05:20;98725.19;;;10.79;51.32
35908;BME280;22003;50.320;8.054;2024-03-25T11:07:45;98764.84;;;10.99;50.80
35908;BME280;22003;50.320;8.054;2024-03-25T11:10:12;98766.53;;;10.63;51.12
35908;BME280;22003;50.320;8.054;2024-03-25T11:12:39;98753.97;;;11.02;51.58
35908;BME280;22003;50.320;8.054;2024-03-25T11:15:05;98744.56;;;10.80;51.44
35908;BME280;22003;50.320;8.054;2024-03-25T11:17:32;98753.19;;;10.45;50.93
35908;BME280;22003;50.320;8.054;2024-03-25T11:20:11;98742.81;;;10.98;50.36
35908;BME280;22003;50.320;8.054;2024-03-25T11:22:48;98739.88;;;10.64;51.56
35908;BME280;22003;50.320;8.054;2024-03-25T11:25:14;98736.44;;;10.91;49.75
35908;BME280;22003;50.320;8.054;2024-03-25T11:27:43;98730.72;;;11.41;49.70
35908;BME280;22003;50.320;8.054;2024-03-25T11:30:09;98721.22;;;11.84;49.45
35908;BME280;22003;50.320;8.054;2024-03-25T11:32:54;98724.31;;;12.41;51.83
35908;BME280;22003;50.320;8.054;2024-03-25T11:35:20;98713.34;;;13.04;50.45
35908;BME280;22003;50.320;8.054;2024-03-25T11:37:45;98708.88;;;13.63;49.71
35908;BME280;22003;50.320;8.054;2024-03-25T11:40:12;98701.81;;;13.22;49.39
35908;BME280;22003;50.320;8.054;2024-03-25T11:42:40;98699.13;;;10.75;55.23
35908;BME280;22003;50.320;8.054;2024-03-25T11:45:16;98695.25;;;10.32;55.22
35908;BME280;22003;50.320;8.054;2024-03-25T11:47:42;98685.75;;;11.49;55.30
35908;BME280;22003;50.320;8.054;2024-03-25T11:50:09;98683.13;;;10.20;53.65
35908;BME280;22003;50.320;8.054;2024-03-25T11:52:35;98686.78;;;10.28;55.06
35908;BME280;22003;50.320;8.054;2024-03-25T11:55:00;98643.28;;;10.31;53.63
35908;BME280;22003;50.320;8.054;2024-03-25T11:57:27;98668.06;;;10.40;54.38
35908;BME280;22003;50.320;8.054;2024-03-25T11:59:52;98676.41;;;10.45;57.01
35908;BME280;22003;50.320;8.054;2024-03-25T12:02:18;98659.16;;;10.21;56.23
35908;BME280;22003;50.320;8.054;2024-03-25T12:04:44;98663.63;;;10.30;54.33
35908;BME280;22003;50.320;8.054;2024-03-25T12:07:13;98661.38;;;10.36;53.26
35908;BME280;22003;50.320;8.054;2024-03-25T12:09:38;98612.69;;;11.01;51.66
35908;BME280;22003;50.320;8.054;2024-03-25T12:12:22;98643.50;;;12.18;51.11
35908;BME280;22003;50.320;8.054;2024-03-25T12:14:48;98644.31;;;13.37;50.94
35908;BME280;22003;50.320;8.054;2024-03-25T12:17:13;98643.97;;;14.13;47.63
35908;BME280;22003;50.320;8.054;2024-03-25T12:19:39;98639.69;;;14.60;47.91
35908;BME280;22003;50.320;8.054;2024-03-25T12:22:06;98633.22;;;14.46;46.44
35908;BME280;22003;50.320;8.054;2024-03-25T12:24:33;98630.81;;;14.12;47.74
35908;BME280;22003;50.320;8.054;2024-03-25T12:26:58;98626.69;;;13.77;48.62
35908;BME280;22003;50.320;8.054;2024-03-25T12:29:23;98614.00;;;13.13;47.64
35908;BME280;22003;50.320;8.054;2024-03-25T12:31:55;98609.41;;;13.64;51.33
35908;BME280;22003;50.320;8.054;2024-03-25T12:34:21;98599.44;;;13.83;47.79
35908;BME280;22003;50.320;8.054;2024-03-25T12:36:50;98552.53;;;13.57;47.06
35908;BME280;22003;50.320;8.054;2024-03-25T12:39:16;98597.28;;;13.62;49.05
35908;BME280;22003;50.320;8.054;2024-03-25T12:41:42;98599.88;;;14.03;50.16
35908;BME280;22003;50.320;8.054;2024-03-25T12:44:07;98592.94;;;13.44;46.82
35908;BME280;22003;50.320;8.054;2024-03-25T12:46:33;98590.72;;;14.05;50.82
35908;BME280;22003;50.320;8.054;2024-03-25T12:48:58;98579.09;;;14.45;48.18
35908;BME280;22003;50.320;8.054;2024-03-25T12:51:23;98584.31;;;14.39;45.08
35908;BME280;22003;50.320;8.054;2024-03-25T12:53:49;98577.97;;;13.27;48.00
35908;BME280;22003;50.320;8.054;2024-03-25T12:56:14;98567.31;;;13.84;47.72
35908;BME280;22003;50.320;8.054;2024-03-25T12:58:39;98563.69;;;12.19;48.61
35908;BME280;22003;50.320;8.054;2024-03-25T13:01:05;98558.72;;;12.16;50.55
35908;BME280;22003;50.320;8.054;2024-03-25T13:03:30;98556.97;;;13.00;47.48